Airfield :
LOGIN :

Register | Disclaimer

   EN    FR    IT 

 










Legend :    VFR   Marginal VFR   IFR   Intensive IFR   Very Intensive IFR
Visi :
Ceiling :
>= 8 km
>= 3000ft
5 to 8 km
1000 to 3000 ft
1500m to 5 km
500 to 1000 ft
800 to 1500m
200 to 500 ft
< 800m
< 200 ft
Symbols :   Thunderstorms  Fog  Heavy snow  Heavy precipitations  Wind > 20 kt
SIGMETs :     Misc.  Thunderstorms  Icing  Turbulence  Mountain Waves  Volcanic Ashes






- Airport Elevation : 112 ft
- IATA code : SVQ


LEZL - Sevilla San Pablo

CURRENT METAR :
  • 191130Z VRB03KT CAVOK 28/11 Q1017 NOSIG

EXPIRED METARs :
  • 191100Z VRB03KT CAVOK 27/12 Q1017 NOSIG
  • 191030Z 06005KT 020V100 CAVOK 26/11 Q1018 NOSIG
  • 191000Z 07004KT 350V120 CAVOK 25/12 Q1018 NOSIG
  • 190930Z 04003KT 320V110 CAVOK 24/13 Q1018 NOSIG
  • 190900Z 03005KT 340V060 CAVOK 23/12 Q1018 NOSIG

TAF TAF LEZL
Valid from the 19 at 09:00 until the 20 at 09:00 UTC


190800Z 1909/2009 04003KT CAVOK TX31/1915Z TN16/2006Z



MET'MAP, your aeronautical weather chart ! - Copyright ORBIFLY December 2007 - Disclaimer

ORBIFLY MET'MAP TEAM :

Programming & Development : Alexandra Zaïnal
Concept & original design : Baudouin d'Aumeries
Assistance for programming : Marc-Olivier Méhu
Technical & hardware support : Manuel Goepfert

Contact : metmap@orbifly.com




SOURCES & CREDITS :

   NOAA